Time;durP1;ratioP1;P1;durP2;ratioP2;P2;SDS_P1;SDS_P2;PMS_P1;PMS_P2;Temp;Humidity;BMP_temperature;BMP_pressure;BME280_temperature;BME280_humidity;BME280_pressure;Samples;Min_cycle;Max_cycle;Signal;HPM_P1;HPM_P2
2022/04/23 00:01:00;;;;;;;7.50;5.47;;;8.00;99.90;;;;;;5032016;28;20164;-71
2022/04/23 00:03:25;;;;;;;7.90;5.77;;;8.00;99.90;;;;;;5031908;28;20183;-71
2022/04/23 00:05:51;;;;;;;6.30;5.70;;;8.00;99.90;;;;;;5031419;28;20191;-71
2022/04/23 00:08:16;;;;;;;6.83;5.93;;;8.00;99.90;;;;;;5031785;28;20168;-71
2022/04/23 00:10:42;;;;;;;8.07;5.37;;;8.00;99.90;;;;;;5031397;28;20205;-71
2022/04/23 00:13:07;;;;;;;6.17;5.67;;;7.90;99.90;;;;;;5031325;28;20211;-71
2022/04/23 00:15:37;;;;;;;7.20;5.20;;;7.90;99.90;;;;;;5031170;28;20168;-71
2022/04/23 00:18:07;;;;;;;6.77;5.30;;;7.80;99.90;;;;;;5031474;28;20171;-71
2022/04/23 00:20:33;;;;;;;8.80;7.07;;;7.80;99.90;;;;;;5031340;28;20414;-71
2022/04/23 00:22:59;;;;;;;7.90;6.53;;;7.80;99.90;;;;;;5031657;28;20464;-71
2022/04/23 00:25:25;;;;;;;6.73;5.50;;;7.80;99.90;;;;;;5031368;28;20454;-71
2022/04/23 00:27:51;;;;;;;6.13;5.43;;;7.70;99.90;;;;;;5031409;28;20402;-72
2022/04/23 00:30:16;;;;;;;7.57;5.87;;;7.70;99.90;;;;;;5031247;28;20485;-71
2022/04/23 00:32:42;;;;;;;10.00;6.20;;;7.60;99.90;;;;;;5031104;28;20168;-71
2022/04/23 00:35:08;;;;;;;8.10;6.10;;;7.60;99.90;;;;;;5030981;28;20191;-71
2022/04/23 00:37:33;;;;;;;8.33;5.77;;;7.60;99.90;;;;;;5031067;28;20227;-71
2022/04/23 00:39:59;;;;;;;8.90;5.53;;;7.60;99.90;;;;;;5031259;28;20777;-71
2022/04/23 00:42:24;;;;;;;8.27;5.17;;;7.50;99.90;;;;;;5031071;28;20251;-72
2022/04/23 00:44:50;;;;;;;8.50;6.03;;;7.40;99.90;;;;;;5030895;28;20195;-72
2022/04/23 00:47:15;;;;;;;7.50;6.70;;;7.30;99.90;;;;;;5030969;28;20283;-72
2022/04/23 00:49:41;;;;;;;10.13;7.10;;;7.30;99.90;;;;;;5033667;28;20267;-70
2022/04/23 00:52:07;;;;;;;6.07;5.43;;;7.20;99.90;;;;;;5034275;28;20174;-71
2022/04/23 00:54:34;;;;;;;5.63;5.13;;;7.20;99.90;;;;;;5034523;28;20172;-70
2022/04/23 00:56:59;;;;;;;5.90;5.27;;;7.10;99.90;;;;;;5034141;28;20904;-71
2022/04/23 00:59:27;;;;;;;8.00;5.67;;;7.10;99.90;;;;;;5034383;28;20468;-70
2022/04/23 01:01:53;;;;;;;8.57;5.77;;;7.10;99.90;;;;;;5034303;28;20160;-71
2022/04/23 01:04:18;;;;;;;8.10;7.00;;;7.10;99.90;;;;;;5033047;28;20436;-71
2022/04/23 01:06:44;;;;;;;7.60;5.80;;;7.10;99.90;;;;;;5034059;28;20230;-71
2022/04/23 01:09:10;;;;;;;7.50;6.70;;;7.00;99.90;;;;;;5034335;28;20174;-71
2022/04/23 01:11:36;;;;;;;5.27;4.77;;;6.90;99.90;;;;;;5034108;28;20413;-71
2022/04/23 01:14:02;;;;;;;10.17;6.73;;;6.90;99.90;;;;;;5034033;28;20168;-71
2022/04/23 01:16:28;;;;;;;9.20;6.97;;;6.90;99.90;;;;;;5033848;28;20794;-72
2022/04/23 01:18:54;;;;;;;8.37;6.57;;;6.90;99.90;;;;;;5034032;28;20168;-71
2022/04/23 01:21:20;;;;;;;7.17;6.30;;;6.90;99.90;;;;;;5033857;28;20410;-71
2022/04/23 01:23:47;;;;;;;5.90;5.30;;;6.80;99.90;;;;;;5033935;28;20779;-70
2022/04/23 01:26:14;;;;;;;7.73;6.80;;;6.80;99.90;;;;;;5033542;28;20211;-71
2022/04/23 01:28:40;;;;;;;8.37;7.07;;;6.70;99.90;;;;;;5033584;28;20410;-71
2022/04/23 01:31:06;;;;;;;9.23;6.30;;;6.80;99.90;;;;;;5033798;28;20413;-71
2022/04/23 01:33:35;;;;;;;8.10;6.13;;;6.70;99.90;;;;;;5033815;28;20561;-71
2022/04/23 01:36:02;;;;;;;8.20;6.50;;;6.70;99.90;;;;;;5033495;28;20510;-71
2022/04/23 01:38:28;;;;;;;9.83;6.50;;;6.70;99.90;;;;;;5033728;28;20415;-70
2022/04/23 01:40:54;;;;;;;7.60;6.57;;;6.70;99.90;;;;;;5034050;28;20501;-70
2022/04/23 01:43:20;;;;;;;9.23;7.73;;;6.60;99.90;;;;;;5033252;28;20171;-71
2022/04/23 01:45:45;;;;;;;7.70;6.90;;;6.60;99.90;;;;;;5033231;28;20286;-71
2022/04/23 01:48:11;;;;;;;8.77;6.87;;;6.70;99.90;;;;;;5033462;28;20493;-71
2022/04/23 01:50:37;;;;;;;9.77;7.17;;;6.60;99.90;;;;;;5033860;28;20198;-71
2022/04/23 01:53:03;;;;;;;8.10;6.80;;;6.70;99.90;;;;;;5033200;28;20175;-71
2022/04/23 01:55:32;;;;;;;8.73;6.10;;;6.70;99.90;;;;;;5033046;28;20190;-71
2022/04/23 01:57:58;;;;;;;8.20;6.27;;;6.70;99.90;;;;;;5033107;28;20410;-71
2022/04/23 02:00:24;;;;;;;8.90;7.03;;;6.70;99.90;;;;;;5015270;28;20464;-71
2022/04/23 02:02:49;;;;;;;8.80;7.30;;;6.70;99.90;;;;;;5033002;28;20415;-70
2022/04/23 02:05:15;;;;;;;8.20;6.80;;;6.70;99.90;;;;;;5032915;28;20202;-71
2022/04/23 02:07:42;;;;;;;9.87;6.53;;;6.70;99.90;;;;;;5032977;28;20278;-71
2022/04/23 02:10:11;;;;;;;8.57;6.57;;;6.70;99.90;;;;;;5033493;28;20175;-71
2022/04/23 02:12:38;;;;;;;7.90;6.83;;;6.70;99.90;;;;;;5033332;28;20402;-71
2022/04/23 02:15:07;;;;;;;12.17;7.27;;;6.70;99.90;;;;;;5033364;28;20406;-70
2022/04/23 02:17:37;;;;;;;8.90;5.63;;;6.70;99.90;;;;;;5033237;28;20426;-71
2022/04/23 02:20:07;;;;;;;8.50;7.10;;;6.70;99.90;;;;;;5033313;28;20488;-71
2022/04/23 02:22:33;;;;;;;8.00;7.23;;;6.70;99.90;;;;;;5032875;28;20413;-70
2022/04/23 02:24:59;;;;;;;6.07;5.33;;;6.70;99.90;;;;;;5032631;28;21003;-71
2022/04/23 02:27:25;;;;;;;6.60;5.40;;;6.70;99.90;;;;;;5032689;28;20191;-71
2022/04/23 02:29:54;;;;;;;9.30;6.27;;;6.70;99.90;;;;;;5015008;28;20423;-71
2022/04/23 02:32:20;;;;;;;9.30;6.80;;;6.70;99.90;;;;;;5032643;28;20242;-71
2022/04/23 02:34:46;;;;;;;7.17;5.90;;;6.70;99.90;;;;;;5032621;28;20407;-71
2022/04/23 02:37:12;;;;;;;8.20;5.83;;;6.60;99.90;;;;;;5032610;28;20491;-71
2022/04/23 02:39:39;;;;;;;9.00;6.43;;;6.60;99.90;;;;;;5032452;28;20406;-71
2022/04/23 02:42:05;;;;;;;7.77;5.70;;;6.50;99.90;;;;;;5032467;28;20174;-71
2022/04/23 02:44:30;;;;;;;7.10;5.77;;;6.50;99.90;;;;;;5032217;28;20407;-71
2022/04/23 02:46:56;;;;;;;10.23;6.17;;;6.50;99.90;;;;;;5032335;28;20521;-70
2022/04/23 02:49:22;;;;;;;10.43;7.90;;;6.50;99.90;;;;;;5032314;28;20179;-71
2022/04/23 02:51:47;;;;;;;6.23;5.60;;;6.40;99.90;;;;;;5032202;28;20167;-71
2022/04/23 02:54:13;;;;;;;5.67;5.10;;;6.40;99.90;;;;;;5032096;28;20172;-71
2022/04/23 02:56:39;;;;;;;7.87;6.67;;;6.40;99.90;;;;;;5031889;28;20298;-71
2022/04/23 02:59:06;;;;;;;7.50;6.30;;;6.30;99.90;;;;;;5032286;28;20175;-71
2022/04/23 03:01:34;;;;;;;6.97;5.53;;;6.30;99.90;;;;;;5032213;28;20183;-71
2022/04/23 03:04:00;;;;;;;13.13;7.10;;;6.30;99.90;;;;;;5032190;28;20794;-71
2022/04/23 03:06:29;;;;;;;9.70;5.80;;;6.30;99.90;;;;;;5032056;28;20457;-71
2022/04/23 03:08:56;;;;;;;9.53;7.17;;;6.20;99.90;;;;;;5032532;28;20189;-71
2022/04/23 03:11:22;;;;;;;8.13;5.83;;;6.20;99.90;;;;;;5031568;28;20407;-71
2022/04/23 03:13:47;;;;;;;7.00;5.23;;;6.20;99.90;;;;;;5032243;28;20436;-70
2022/04/23 03:16:12;;;;;;;9.87;7.10;;;6.20;99.90;;;;;;5032106;28;20430;-71
2022/04/23 03:18:38;;;;;;;7.40;5.67;;;6.20;99.90;;;;;;5031932;28;20653;-71
2022/04/23 03:21:03;;;;;;;7.80;6.83;;;6.20;99.90;;;;;;5031914;28;20657;-71
2022/04/23 03:23:29;;;;;;;9.97;6.67;;;6.10;99.90;;;;;;5031990;28;20175;-71
2022/04/23 03:25:54;;;;;;;9.77;7.47;;;6.10;99.90;;;;;;5031635;28;20729;-71
2022/04/23 03:28:20;;;;;;;8.47;7.57;;;6.10;99.90;;;;;;5031997;28;20200;-71
2022/04/23 03:30:46;;;;;;;9.87;7.33;;;6.10;99.90;;;;;;5031934;28;20167;-71
2022/04/23 03:33:12;;;;;;;10.03;7.60;;;6.10;99.90;;;;;;5031988;28;20250;-71
2022/04/23 03:35:37;;;;;;;7.30;5.90;;;6.10;99.90;;;;;;5031628;28;20517;-71
2022/04/23 03:38:03;;;;;;;10.10;7.33;;;6.10;99.90;;;;;;5031792;28;20186;-71
2022/04/23 03:40:29;;;;;;;11.13;7.00;;;6.10;99.90;;;;;;5031897;28;20176;-71
2022/04/23 03:42:54;;;;;;;10.57;7.20;;;6.10;99.90;;;;;;5013904;28;20175;-72
2022/04/23 03:45:20;;;;;;;7.90;6.70;;;6.00;99.90;;;;;;5031660;28;20202;-71
2022/04/23 03:47:47;;;;;;;14.30;7.77;;;6.00;99.90;;;;;;5031684;28;20172;-70
2022/04/23 03:50:13;;;;;;;7.50;6.33;;;6.10;99.90;;;;;;5032698;28;20186;-71
2022/04/23 03:52:39;;;;;;;12.83;6.00;;;6.00;99.90;;;;;;5032145;28;20403;-71
2022/04/23 03:55:05;;;;;;;10.10;6.40;;;6.00;99.90;;;;;;5031881;28;20425;-71
2022/04/23 03:57:32;;;;;;;7.27;6.07;;;5.90;99.90;;;;;;5082207;22;20222;-68
2022/04/23 04:00:02;;;;;;;8.83;7.93;;;5.90;99.90;;;;;;5071667;28;20632;-69
2022/04/23 04:02:28;;;;;;;8.50;7.57;;;5.90;99.90;;;;;;5071942;28;20401;-68
2022/04/23 04:04:54;;;;;;;7.40;6.47;;;6.00;99.90;;;;;;5071459;28;20444;-68
2022/04/23 04:07:19;;;;;;;6.90;5.57;;;6.00;99.90;;;;;;5071846;28;20424;-68
2022/04/23 04:09:46;;;;;;;9.77;7.07;;;6.00;99.90;;;;;;5072217;28;20404;-67
2022/04/23 04:12:12;;;;;;;9.20;6.90;;;6.00;99.90;;;;;;5072105;28;20636;-68
2022/04/23 04:14:37;;;;;;;8.80;6.13;;;6.00;99.90;;;;;;5072012;28;20405;-68
2022/04/23 04:17:07;;;;;;;9.43;7.90;;;6.10;99.90;;;;;;5072835;28;20429;-69
2022/04/23 04:19:34;;;;;;;7.97;5.20;;;6.10;99.90;;;;;;5072199;28;20150;-68
2022/04/23 04:22:02;;;;;;;9.30;8.03;;;6.10;99.90;;;;;;5071960;28;20407;-69
2022/04/23 04:24:28;;;;;;;9.73;7.03;;;6.20;99.90;;;;;;5075154;28;20801;-69
2022/04/23 04:26:53;;;;;;;11.90;5.50;;;6.20;99.90;;;;;;5076126;28;20428;-69
2022/04/23 04:29:19;;;;;;;9.00;7.80;;;6.20;99.90;;;;;;5076531;28;20193;-68
2022/04/23 04:31:48;;;;;;;12.07;8.40;;;6.10;99.90;;;;;;5076296;28;20169;-68
2022/04/23 04:34:18;;;;;;;9.90;7.33;;;6.10;99.90;;;;;;5076463;28;20170;-68
2022/04/23 04:36:45;;;;;;;14.23;8.30;;;6.00;99.90;;;;;;5076762;28;20507;-68
2022/04/23 04:39:11;;;;;;;8.83;6.23;;;6.00;99.90;;;;;;5076433;28;20758;-69
2022/04/23 04:41:37;;;;;;;10.30;7.17;;;6.00;99.90;;;;;;5076632;28;20414;-69
2022/04/23 04:44:03;;;;;;;9.47;5.80;;;6.00;99.90;;;;;;5076335;28;20238;-69
2022/04/23 04:46:29;;;;;;;7.63;6.37;;;6.00;99.90;;;;;;5075339;28;20455;-68
2022/04/23 04:48:55;;;;;;;7.03;6.23;;;6.10;99.90;;;;;;5075273;28;20409;-69
2022/04/23 04:51:20;;;;;;;9.13;6.57;;;6.10;99.90;;;;;;5076541;28;20166;-68
2022/04/23 04:53:46;;;;;;;12.23;8.20;;;6.20;99.90;;;;;;5077121;28;20181;-68
2022/04/23 04:56:11;;;;;;;9.50;6.87;;;6.20;99.90;;;;;;5075108;28;20276;-67
2022/04/23 04:58:37;;;;;;;8.00;6.90;;;6.20;99.90;;;;;;5075147;28;20535;-69
2022/04/23 05:01:03;;;;;;;8.13;6.13;;;6.30;99.90;;;;;;5075673;28;20166;-68
2022/04/23 05:03:29;;;;;;;8.67;7.13;;;6.40;99.90;;;;;;5075913;28;20181;-69
2022/04/23 05:05:54;;;;;;;6.70;5.97;;;6.50;99.90;;;;;;5075328;28;20973;-68
2022/04/23 05:08:19;;;;;;;7.90;6.00;;;6.60;99.90;;;;;;5075278;28;20573;-69
2022/04/23 05:10:45;;;;;;;8.93;6.70;;;6.60;99.90;;;;;;5075270;28;20197;-68
2022/04/23 05:13:10;;;;;;;9.43;6.73;;;6.70;99.90;;;;;;5074897;28;20579;-69
2022/04/23 05:15:37;;;;;;;7.37;5.93;;;6.80;99.90;;;;;;5075024;28;20174;-68
2022/04/23 05:18:03;;;;;;;8.13;6.23;;;6.90;99.90;;;;;;5075265;28;20720;-69
2022/04/23 05:20:28;;;;;;;5.90;5.13;;;7.00;99.90;;;;;;5075326;28;20492;-67
2022/04/23 05:22:54;;;;;;;8.77;5.47;;;7.20;99.90;;;;;;5073992;28;20174;-68
2022/04/23 05:25:19;;;;;;;7.97;5.77;;;7.30;99.90;;;;;;5075274;28;20225;-68
2022/04/23 05:27:45;;;;;;;8.30;6.50;;;7.40;99.90;;;;;;5074700;28;20197;-69
2022/04/23 05:30:10;;;;;;;7.70;6.60;;;7.60;99.90;;;;;;5074801;28;20175;-69
2022/04/23 05:32:36;;;;;;;6.03;5.43;;;8.10;99.90;;;;;;5075218;28;20254;-68
2022/04/23 05:35:01;;;;;;;7.10;6.40;;;8.80;99.90;;;;;;5075706;28;20167;-68
2022/04/23 05:37:27;;;;;;;7.13;4.60;;;9.50;99.90;;;;;;5074131;28;20194;-68
2022/04/23 05:39:52;;;;;;;7.17;4.87;;;10.00;99.90;;;;;;5073966;28;20193;-68
2022/04/23 05:42:18;;;;;;;5.33;4.83;;;10.20;99.90;;;;;;5074057;28;20227;-68
2022/04/23 05:44:43;;;;;;;6.73;5.00;;;10.70;99.90;;;;;;5073769;28;20174;-68
2022/04/23 05:47:09;;;;;;;5.10;4.60;;;11.20;99.90;;;;;;5073653;28;20310;-68
2022/04/23 05:49:37;;;;;;;8.10;6.07;;;11.50;99.90;;;;;;5073954;28;20173;-68
2022/04/23 05:52:03;;;;;;;6.90;5.23;;;11.90;99.90;;;;;;5073518;28;20174;-68
2022/04/23 05:54:28;;;;;;;6.90;5.33;;;12.60;99.90;;;;;;5072668;28;20484;-68
2022/04/23 05:56:54;;;;;;;5.20;4.70;;;12.90;99.90;;;;;;5073463;28;20437;-67
2022/04/23 05:59:19;;;;;;;6.83;6.13;;;13.20;99.90;;;;;;5073606;28;20210;-68
2022/04/23 06:01:45;;;;;;;6.03;5.43;;;13.50;99.90;;;;;;5073478;28;20776;-69
2022/04/23 06:04:11;;;;;;;6.40;5.70;;;14.10;99.90;;;;;;5073575;28;20167;-68
2022/04/23 06:06:36;;;;;;;5.47;4.50;;;14.10;99.90;;;;;;5073375;28;20211;-68
2022/04/23 06:09:02;;;;;;;7.33;5.20;;;14.10;99.90;;;;;;5073491;28;20167;-69
2022/04/23 06:11:27;;;;;;;9.57;6.37;;;14.40;99.90;;;;;;5073261;28;20644;-68
2022/04/23 06:13:53;;;;;;;8.87;6.30;;;14.30;99.90;;;;;;5072947;28;20220;-68
2022/04/23 06:16:18;;;;;;;7.20;6.17;;;14.60;99.90;;;;;;5073011;28;20247;-69
2022/04/23 06:18:44;;;;;;;6.27;5.53;;;14.90;99.90;;;;;;5073424;28;20170;-69
2022/04/23 06:21:10;;;;;;;6.70;6.03;;;15.10;99.90;;;;;;5073296;28;20191;-69
2022/04/23 06:23:35;;;;;;;6.73;5.70;;;15.10;99.40;;;;;;5073310;28;20531;-68
2022/04/23 06:26:01;;;;;;;8.00;5.73;;;15.20;99.30;;;;;;5073037;28;20454;-68
2022/04/23 06:28:26;;;;;;;5.77;5.27;;;15.20;99.20;;;;;;5071813;28;20173;-69
2022/04/23 06:30:51;;;;;;;6.57;5.50;;;15.80;97.60;;;;;;5073319;28;20270;-68
2022/04/23 06:33:17;;;;;;;8.40;5.30;;;15.50;98.60;;;;;;5073428;28;20173;-67
2022/04/23 06:35:46;;;;;;;6.10;5.20;;;15.70;97.20;;;;;;5073689;28;20203;-68
2022/04/23 06:38:11;;;;;;;5.30;4.70;;;16.00;96.80;;;;;;5074306;28;20486;-69
2022/04/23 06:40:37;;;;;;;4.60;4.13;;;16.20;95.90;;;;;;5075105;28;20435;-69
2022/04/23 06:43:02;;;;;;;5.87;4.83;;;16.70;95.50;;;;;;5074862;28;20181;-68
2022/04/23 06:45:28;;;;;;;6.00;5.47;;;16.40;95.60;;;;;;5074260;28;20209;-68
2022/04/23 06:48:02;;;;;;;5.33;4.80;;;16.70;95.60;;;;;;5074386;28;20268;-68
2022/04/23 06:50:28;;;;;;;7.10;5.70;;;16.30;94.30;;;;;;5072347;28;20178;-67
2022/04/23 06:52:53;;;;;;;5.03;4.53;;;16.60;94.20;;;;;;5072307;28;20415;-69
2022/04/23 06:55:19;;;;;;;5.17;4.67;;;16.90;93.60;;;;;;5072218;28;20221;-68
2022/04/23 06:57:44;;;;;;;5.07;4.67;;;16.90;93.30;;;;;;5071734;28;20208;-69
2022/04/23 07:00:11;;;;;;;5.47;4.97;;;17.30;92.90;;;;;;5072382;28;20709;-67
2022/04/23 07:02:37;;;;;;;5.70;4.87;;;17.20;92.10;;;;;;5071940;28;20163;-68
2022/04/23 07:05:02;;;;;;;4.37;3.97;;;17.30;91.40;;;;;;5071900;28;20956;-67
2022/04/23 07:07:27;;;;;;;5.90;4.93;;;17.50;92.40;;;;;;5072301;28;20270;-68
2022/04/23 07:09:53;;;;;;;5.90;5.30;;;17.50;91.80;;;;;;5072022;28;20166;-68
2022/04/23 07:12:19;;;;;;;5.30;4.53;;;17.10;91.70;;;;;;5071966;28;20173;-68
2022/04/23 07:14:44;;;;;;;4.30;3.90;;;17.20;91.20;;;;;;5071688;28;20189;-67
2022/04/23 07:17:10;;;;;;;5.17;4.67;;;17.70;91.00;;;;;;5072125;28;20189;-67
2022/04/23 07:19:40;;;;;;;4.60;4.17;;;18.40;89.60;;;;;;5072190;28;20237;-67
2022/04/23 07:22:06;;;;;;;4.27;3.93;;;17.30;90.70;;;;;;5072338;28;20603;-69
2022/04/23 07:24:31;;;;;;;5.27;4.77;;;17.20;91.50;;;;;;5071568;28;20416;-68
2022/04/23 07:26:59;;;;;;;4.07;3.67;;;18.30;90.00;;;;;;5071805;28;20499;-67
2022/04/23 07:29:24;;;;;;;4.93;4.50;;;18.70;85.40;;;;;;5071911;28;20173;-68
2022/04/23 07:31:50;;;;;;;5.43;4.80;;;18.90;86.40;;;;;;5071592;28;20540;-69
2022/04/23 07:39:44;;;;;;;5.30;4.23;;;17.40;90.30;;;;;;5071954;28;20450;-68
2022/04/23 07:42:10;;;;;;;4.60;4.00;;;18.40;85.30;;;;;;5071721;28;20729;-68
2022/04/23 07:44:39;;;;;;;4.20;3.67;;;19.20;81.50;;;;;;5071402;28;20183;-69
2022/04/23 07:47:05;;;;;;;4.20;3.80;;;19.20;81.80;;;;;;5071793;28;20188;-68
2022/04/23 07:49:31;;;;;;;4.43;3.90;;;18.80;81.00;;;;;;5071833;28;20411;-69
2022/04/23 07:51:56;;;;;;;4.00;3.57;;;18.30;82.60;;;;;;5072401;28;20763;-67
2022/04/23 07:54:23;;;;;;;4.83;4.43;;;18.10;81.30;;;;;;5071909;28;20178;-68
2022/04/23 07:56:48;;;;;;;4.73;4.30;;;18.70;82.10;;;;;;5071499;28;20222;-69
2022/04/23 07:59:14;;;;;;;4.00;3.67;;;18.70;81.80;;;;;;5076300;28;20497;-69
2022/04/23 08:01:39;;;;;;;5.00;3.67;;;19.00;81.00;;;;;;5076160;28;20569;-68
2022/04/23 08:04:06;;;;;;;5.23;4.73;;;18.50;82.30;;;;;;5077033;28;20178;-68
2022/04/23 08:06:32;;;;;;;4.73;4.33;;;18.20;83.00;;;;;;5076310;28;20209;-68
2022/04/23 08:08:59;;;;;;;4.47;4.07;;;18.90;82.70;;;;;;5077651;28;20708;-69
2022/04/23 08:11:25;;;;;;;5.80;4.37;;;18.90;81.50;;;;;;5078592;28;20172;-69
2022/04/23 08:13:51;;;;;;;5.83;5.00;;;18.80;81.00;;;;;;5078520;28;20412;-68
2022/04/23 08:16:17;;;;;;;5.37;4.60;;;18.80;82.10;;;;;;5076990;28;20761;-68
2022/04/23 08:18:42;;;;;;;3.67;3.37;;;19.40;81.30;;;;;;5076224;28;20202;-68
2022/04/23 08:21:08;;;;;;;4.57;4.17;;;19.40;79.70;;;;;;5075462;28;20753;-68
2022/04/23 08:23:33;;;;;;;4.83;4.27;;;19.60;79.60;;;;;;5075618;28;20182;-68
2022/04/23 08:26:08;;;;;;;4.30;3.90;;;19.60;77.70;;;;;;5075216;28;20203;-67
2022/04/23 08:31:18;;;;;;;4.80;4.10;;;19.70;79.00;;;;;;5076042;28;20401;-68
2022/04/23 08:33:58;;;;;;;5.07;4.67;;;19.40;77.30;;;;;;5075720;28;20402;-69
2022/04/23 08:36:32;;;;;;;3.73;3.20;;;19.50;76.80;;;;;;5074949;28;20188;-68
2022/04/23 08:38:58;;;;;;;4.70;4.30;;;19.50;76.10;;;;;;5074945;28;20403;-68
2022/04/23 08:41:31;;;;;;;4.67;4.27;;;19.20;76.50;;;;;;5074955;28;20405;-68
2022/04/23 08:44:05;;;;;;;5.27;4.07;;;18.40;77.00;;;;;;5074816;28;20522;-68
2022/04/23 08:46:36;;;;;;;4.77;4.30;;;18.40;77.50;;;;;;5074964;28;20456;-68
2022/04/23 08:49:13;;;;;;;3.60;3.30;;;18.70;77.60;;;;;;5074941;28;20406;-69
2022/04/23 08:51:43;;;;;;;3.53;3.17;;;19.00;77.40;;;;;;5074601;28;20410;-68
2022/04/23 08:54:13;;;;;;;4.97;4.50;;;19.60;79.70;;;;;;5074294;28;20896;-68
2022/04/23 08:56:41;;;;;;;4.57;3.40;;;20.50;74.70;;;;;;5074433;28;20528;-69
2022/04/23 08:59:07;;;;;;;3.70;3.40;;;20.10;70.90;;;;;;5074541;28;20920;-68
2022/04/23 09:01:35;;;;;;;3.63;3.33;;;19.60;72.40;;;;;;5074689;28;20440;-69
2022/04/23 09:04:01;;;;;;;3.90;3.50;;;19.50;73.00;;;;;;5074495;28;20404;-69
2022/04/23 09:06:41;;;;;;;3.67;3.37;;;19.50;73.90;;;;;;5074527;28;20565;-68
2022/04/23 09:09:17;;;;;;;3.90;3.40;;;18.90;70.80;;;;;;5076833;28;21041;-68
2022/04/23 09:11:55;;;;;;;4.10;3.77;;;18.70;71.50;;;;;;5075551;28;20403;-69
2022/04/23 09:14:28;;;;;;;3.77;3.47;;;18.90;71.30;;;;;;5075080;28;20415;-67
2022/04/23 09:25:36;;;;;;;4.20;3.50;;;18.30;72.80;;;;;;5074919;28;20453;-69
2022/04/23 09:28:18;;;;;;;3.50;3.20;;;18.90;70.20;;;;;;5074230;28;20454;-68
2022/04/23 09:30:45;;;;;;;4.50;3.50;;;18.00;71.40;;;;;;5074757;28;20921;-67
2022/04/23 09:33:12;;;;;;;4.90;3.17;;;17.80;71.70;;;;;;5074021;28;20473;-69
2022/04/23 09:36:01;;;;;;;4.90;4.07;;;18.70;71.80;;;;;;5074291;28;20926;-67
2022/04/23 09:38:27;;;;;;;3.67;3.37;;;19.60;68.80;;;;;;5074818;28;20504;-68
2022/04/23 09:40:55;;;;;;;2.73;2.53;;;19.40;66.50;;;;;;5075317;28;20487;-68
2022/04/23 09:43:29;;;;;;;3.80;3.50;;;18.60;67.80;;;;;;5075006;28;20420;-69
2022/04/23 09:46:06;;;;;;;4.00;3.13;;;17.80;69.40;;;;;;5074744;28;20455;-69
2022/04/23 09:48:32;;;;;;;2.73;2.53;;;17.60;69.40;;;;;;5075315;28;20402;-69
2022/04/23 09:50:58;;;;;;;3.03;2.80;;;18.00;70.00;;;;;;5075437;28;20437;-69
2022/04/23 09:53:27;;;;;;;3.70;2.80;;;17.60;68.60;;;;;;5075214;28;20407;-69
2022/04/23 09:55:59;;;;;;;3.90;3.50;;;17.20;70.90;;;;;;5074536;28;20990;-70
2022/04/23 09:58:26;;;;;;;4.60;4.20;;;17.40;70.60;;;;;;5117779;22;20987;-67
2022/04/23 10:00:52;;;;;;;4.07;3.77;;;17.20;70.60;;;;;;5073576;28;20503;-67
2022/04/23 10:03:19;;;;;;;4.80;4.40;;;16.90;71.50;;;;;;5073887;28;20403;-67
2022/04/23 10:05:49;;;;;;;3.30;3.00;;;16.60;72.20;;;;;;5074443;28;20457;-67
2022/04/23 10:08:16;;;;;;;6.00;3.80;;;16.40;73.10;;;;;;5073719;28;20757;-67
2022/04/23 10:10:53;;;;;;;3.90;3.50;;;16.10;73.40;;;;;;5072580;28;20401;-66
2022/04/23 10:13:21;;;;;;;3.40;3.10;;;16.00;74.70;;;;;;5073805;28;20820;-67
2022/04/23 10:15:47;;;;;;;6.87;3.90;;;16.20;74.00;;;;;;5072261;28;20470;-67
2022/04/23 10:18:14;;;;;;;4.53;3.87;;;16.00;74.50;;;;;;5072338;28;20425;-66
2022/04/23 10:20:40;;;;;;;4.13;3.80;;;16.20;74.30;;;;;;5072442;28;20799;-67
2022/04/23 10:23:15;;;;;;;3.90;3.37;;;16.00;74.60;;;;;;5072525;28;20397;-67
2022/04/23 10:26:08;;;;;;;4.80;3.23;;;16.30;74.80;;;;;;5072089;28;20443;-67
2022/04/23 10:28:41;;;;;;;2.73;2.53;;;16.30;72.60;;;;;;5072407;28;20474;-67
2022/04/23 10:31:16;;;;;;;5.00;3.50;;;16.20;72.60;;;;;;5072638;28;20402;-65
2022/04/23 10:33:46;;;;;;;3.67;3.37;;;16.10;74.80;;;;;;5072584;28;20474;-68
2022/04/23 10:36:13;;;;;;;3.73;3.17;;;16.00;75.10;;;;;;5072238;28;20404;-67
2022/04/23 10:38:45;;;;;;;3.90;3.47;;;16.10;75.30;;;;;;5071808;28;20942;-67
2022/04/23 10:41:13;;;;;;;3.97;3.67;;;16.40;74.10;;;;;;5072347;28;20410;-67
2022/04/23 10:43:50;;;;;;;5.03;3.97;;;16.40;74.00;;;;;;5071993;28;20409;-67
2022/04/23 10:46:37;;;;;;;3.80;3.50;;;16.50;74.40;;;;;;5071898;28;20479;-66
2022/04/23 10:49:13;;;;;;;3.03;2.73;;;16.80;74.00;;;;;;5071802;28;20409;-67
2022/04/23 10:51:50;;;;;;;3.80;3.37;;;16.90;73.10;;;;;;5070594;28;20421;-66
2022/04/23 10:54:20;;;;;;;3.00;2.70;;;16.60;72.30;;;;;;5072043;28;20390;-67
2022/04/23 10:56:50;;;;;;;4.40;3.73;;;16.80;73.10;;;;;;5071675;28;20393;-66
2022/04/23 10:59:37;;;;;;;4.23;3.43;;;16.30;72.20;;;;;;5071752;28;20800;-68
2022/04/23 11:02:06;;;;;;;4.63;4.07;;;16.50;73.00;;;;;;5071763;28;20412;-67
2022/04/23 11:04:33;;;;;;;5.70;3.83;;;16.70;73.50;;;;;;5071519;28;20407;-67
2022/04/23 11:12:38;;;;;;;4.90;3.10;;;17.00;73.00;;;;;;5071851;28;20400;-67
2022/04/23 11:15:15;;;;;;;3.50;2.90;;;16.80;73.30;;;;;;5071601;28;20404;-68
2022/04/23 11:17:56;;;;;;;3.07;2.87;;;16.80;72.80;;;;;;5071514;28;20423;-67
2022/04/23 11:20:30;;;;;;;3.03;2.83;;;17.00;74.10;;;;;;5071971;28;20404;-68
2022/04/23 11:22:57;;;;;;;2.93;2.73;;;16.90;74.00;;;;;;5071581;28;20481;-67
2022/04/23 11:25:23;;;;;;;3.40;3.13;;;17.10;74.10;;;;;;5072097;28;20946;-68
2022/04/23 11:27:50;;;;;;;3.57;2.80;;;17.30;72.90;;;;;;5071741;28;20491;-68
2022/04/23 11:30:25;;;;;;;3.20;3.00;;;17.20;70.40;;;;;;5071453;28;20410;-69
2022/04/23 11:32:51;;;;;;;3.43;3.13;;;17.20;72.60;;;;;;5070877;28;20405;-68
2022/04/23 11:35:16;;;;;;;3.33;3.03;;;17.10;70.90;;;;;;5071450;28;20419;-68
2022/04/23 11:37:43;;;;;;;3.27;2.80;;;17.00;72.80;;;;;;5071893;28;20219;-68
2022/04/23 11:40:10;;;;;;;3.30;3.00;;;17.00;71.90;;;;;;5071779;28;20179;-67
2022/04/23 11:42:40;;;;;;;3.07;2.77;;;17.10;72.00;;;;;;5071509;28;20725;-67
2022/04/23 11:45:08;;;;;;;3.40;3.10;;;17.20;71.20;;;;;;5071408;28;20945;-68
2022/04/23 11:47:33;;;;;;;2.83;2.63;;;16.90;70.30;;;;;;5071040;28;20449;-69
2022/04/23 11:50:16;;;;;;;3.53;2.83;;;16.70;70.30;;;;;;5071449;28;20397;-68
2022/04/23 11:52:42;;;;;;;3.30;2.90;;;16.70;70.80;;;;;;5071281;28;20401;-67
2022/04/23 11:55:22;;;;;;;4.07;3.57;;;17.00;70.70;;;;;;5071370;28;20770;-68
2022/04/23 11:57:59;;;;;;;3.83;3.47;;;16.90;71.30;;;;;;5071243;28;20505;-67
2022/04/23 12:00:26;;;;;;;4.10;3.70;;;16.60;72.10;;;;;;5070943;28;20413;-67
2022/04/23 12:02:52;;;;;;;5.70;3.17;;;16.40;72.50;;;;;;5071209;28;20404;-67
2022/04/23 12:05:23;;;;;;;3.33;3.03;;;16.50;73.00;;;;;;5071067;28;20494;-67
2022/04/23 12:07:48;;;;;;;3.63;3.30;;;16.70;72.10;;;;;;5070933;28;20421;-68
2022/04/23 12:10:14;;;;;;;3.10;2.80;;;16.90;71.50;;;;;;5070872;28;20398;-67
2022/04/23 12:12:42;;;;;;;4.60;3.20;;;16.90;69.30;;;;;;5070791;28;20167;-67
2022/04/23 12:15:14;;;;;;;3.50;3.17;;;16.60;68.90;;;;;;5070802;28;20255;-67
2022/04/23 12:17:47;;;;;;;4.10;3.33;;;16.80;70.10;;;;;;5070741;28;20429;-67
2022/04/23 12:20:15;;;;;;;3.00;2.80;;;16.90;70.50;;;;;;5070765;28;20438;-67
2022/04/23 12:22:53;;;;;;;3.03;2.80;;;16.90;70.30;;;;;;5070747;28;20807;-68
2022/04/23 12:25:19;;;;;;;3.67;2.70;;;16.90;70.20;;;;;;5070617;28;20453;-67
2022/04/23 12:40:43;;;;;;;3.70;2.83;;;17.00;70.70;;;;;;5070525;28;20785;-67
2022/04/23 12:42:03;;;;;;;3.10;2.80;;;17.80;65.80;;;;;;5070517;28;20489;-68
2022/04/23 12:44:37;;;;;;;2.57;2.37;;;17.80;66.60;;;;;;5071254;28;20515;-68
2022/04/23 12:47:04;;;;;;;3.40;3.10;;;18.00;66.00;;;;;;5074229;28;20459;-68
2022/04/23 12:49:46;;;;;;;3.63;3.30;;;18.10;65.90;;;;;;5074147;28;20925;-69
2022/04/23 12:52:16;;;;;;;2.63;2.43;;;17.90;65.00;;;;;;5074110;28;20842;-67
2022/04/23 12:55:14;;;;;;;4.03;3.20;;;17.70;65.80;;;;;;5074024;28;20407;-68
2022/04/23 12:57:50;;;;;;;2.67;2.47;;;17.40;66.30;;;;;;5074086;28;20449;-68
2022/04/23 13:00:18;;;;;;;2.70;2.50;;;17.50;66.70;;;;;;5072910;28;20439;-69
2022/04/23 13:02:47;;;;;;;3.23;2.93;;;17.50;66.50;;;;;;5074519;28;20498;-68
2022/04/23 13:05:13;;;;;;;3.60;3.30;;;17.30;66.00;;;;;;5074329;28;20505;-69
2022/04/23 13:10:23;;;;;;;2.90;2.70;;;17.10;66.50;;;;;;5074650;28;20409;-69
2022/04/23 13:12:49;;;;;;;3.53;3.00;;;17.20;65.90;;;;;;5073924;28;20403;-68
2022/04/23 13:15:18;;;;;;;3.60;3.30;;;17.40;66.10;;;;;;5074072;28;20175;-68
2022/04/23 13:17:45;;;;;;;2.20;2.00;;;17.30;66.00;;;;;;5074129;28;20191;-69
2022/04/23 13:20:12;;;;;;;2.73;2.53;;;16.90;67.80;;;;;;5072727;28;20421;-68
2022/04/23 13:22:38;;;;;;;3.40;3.10;;;17.00;68.40;;;;;;5074044;28;20406;-68
2022/04/23 13:25:05;;;;;;;2.73;2.53;;;17.10;68.80;;;;;;5074441;28;20460;-67
2022/04/23 13:27:31;;;;;;;3.60;3.30;;;17.20;67.60;;;;;;5073518;28;20863;-67
2022/04/23 13:29:57;;;;;;;3.47;3.17;;;17.30;67.40;;;;;;5073729;28;20428;-69